Rhonda Lamulle — WDC8441 — position and weather

sailwx.info

Track history (hours):
 
Tides and Currents Weather Stations Pressure Air Temp Water Temp Dewpoint Dewpoint Depression Visibility Wind Speed Wind Dir Waves Ship Positions

Rhonda Lamulle

Owner: Florida Marine, LLC, Mandeville, LA. More information available from US FCC via Universal Licensing System and Coast Guard Vessel Documentation Center.

Last reported at 2017-May-17 20:12 UTC. Time now 2017-May-24 23:46 UTC.
Position N 30°24' W 086°54'.

Length 13 m; draft 3 m.

Type: Towing. MMSI: 367087104.

Date/timePositionNaut miles runAvg speedWind from/ knotsBaromVisibWave heightAir tempDewpointWater temp
2017-May-17 20:12N 30°24' W 086°54'1 6.4
2017-May-17 20:00N 30°24' W 086°53'4 6.3
2017-May-17 19:27N 30°24' W 086°49'6 0.3
2017-May-17 03:06N 30°24' W 086°42'0 0.0
2017-May-17 01:11N 30°24' W 086°42'5 4.0
2017-May-16 23:50N 30°24' W 086°36'8 5.5
2017-May-16 22:27N 30°28' W 086°28'1 3.0
2017-May-16 22:00N 30°29' W 086°29'0 0.8
2017-May-16 21:30N 30°29' W 086°29'0 0.0
2017-May-16 21:00N 30°29' W 086°29'0 0.0
2017-May-16 20:30N 30°29' W 086°29'0 0.0
2017-May-16 20:00N 30°29' W 086°29'0 0.0
2017-May-16 19:30N 30°29' W 086°29'0 0.0
2017-May-16 19:00N 30°29' W 086°29'0 0.0
2017-May-16 18:30N 30°29' W 086°29'0 0.0
2017-May-16 18:00N 30°29' W 086°29'0 0.0
2017-May-16 17:30N 30°29' W 086°29'0 0.0
2017-May-16 17:00N 30°29' W 086°29'0 0.0
2017-May-16 16:30N 30°29' W 086°29'0 0.0
2017-May-16 16:00N 30°29' W 086°29'0 0.0
2017-May-16 15:30N 30°29' W 086°29'0 0.0
2017-May-16 15:00N 30°29' W 086°29'0 0.0
2017-May-16 14:30N 30°29' W 086°29'0 0.0
2017-May-16 13:30N 30°29' W 086°29'0 0.0
2017-May-16 13:00N 30°29' W 086°29'0 0.2
2017-May-16 12:30N 30°29' W 086°29'1 1.7
2017-May-16 12:00N 30°29' W 086°28'3 6.0
2017-May-16 11:30N 30°26' W 086°26'3 6.1
2017-May-16 11:00N 30°26' W 086°23'3 6.3
2017-May-16 10:30N 30°26' W 086°19'3 6.1
2017-May-16 10:00N 30°26' W 086°15'  
2017-May-12 11:39N 30°24' W 086°44'1 6.0
2017-May-12 11:30N 30°24' W 086°45'3 6.1
2017-May-12 11:00N 30°24' W 086°48'3 5.9
2017-May-12 10:30N 30°24' W 086°52'  
Track history (hours):
 
Tides and Currents Weather Stations Pressure Air Temp Water Temp Dewpoint Dewpoint Depression Visibility Wind Speed Wind Dir Waves Ship Positions

Rhonda Lamulle

Owner: Florida Marine, LLC, Mandeville, LA. More information available from US FCC via Universal Licensing System and Coast Guard Vessel Documentation Center.

Last reported at 2017-May-17 20:12 UTC. Time now 2017-May-24 23:46 UTC.
Position N 30°24' W 086°54'.

Length 13 m; draft 3 m.

Type: Towing. MMSI: 367087104.

Date/timePositionNaut miles runAvg speedWind from/ knotsBaromVisibWave heightAir tempDewpointWater temp
2017-May-17 20:12N 30°24' W 086°54'1 6.4
2017-May-17 20:00N 30°24' W 086°53'4 6.3
2017-May-17 19:27N 30°24' W 086°49'6 0.3
2017-May-17 03:06N 30°24' W 086°42'0 0.0
2017-May-17 01:11N 30°24' W 086°42'5 4.0
2017-May-16 23:50N 30°24' W 086°36'8 5.5
2017-May-16 22:27N 30°28' W 086°28'1 3.0
2017-May-16 22:00N 30°29' W 086°29'0 0.8
2017-May-16 21:30N 30°29' W 086°29'0 0.0
2017-May-16 21:00N 30°29' W 086°29'0 0.0
2017-May-16 20:30N 30°29' W 086°29'0 0.0
2017-May-16 20:00N 30°29' W 086°29'0 0.0
2017-May-16 19:30N 30°29' W 086°29'0 0.0
2017-May-16 19:00N 30°29' W 086°29'0 0.0
2017-May-16 18:30N 30°29' W 086°29'0 0.0
2017-May-16 18:00N 30°29' W 086°29'0 0.0
2017-May-16 17:30N 30°29' W 086°29'0 0.0
2017-May-16 17:00N 30°29' W 086°29'0 0.0
2017-May-16 16:30N 30°29' W 086°29'0 0.0
2017-May-16 16:00N 30°29' W 086°29'0 0.0
2017-May-16 15:30N 30°29' W 086°29'0 0.0
2017-May-16 15:00N 30°29' W 086°29'0 0.0
2017-May-16 14:30N 30°29' W 086°29'0 0.0
2017-May-16 13:30N 30°29' W 086°29'0 0.0
2017-May-16 13:00N 30°29' W 086°29'0 0.2
2017-May-16 12:30N 30°29' W 086°29'1 1.7
2017-May-16 12:00N 30°29' W 086°28'3 6.0
2017-May-16 11:30N 30°26' W 086°26'3 6.1
2017-May-16 11:00N 30°26' W 086°23'3 6.3
2017-May-16 10:30N 30°26' W 086°19'3 6.1
2017-May-16 10:00N 30°26' W 086°15'  
2017-May-12 11:39N 30°24' W 086°44'1 6.0
2017-May-12 11:30N 30°24' W 086°45'3 6.1
2017-May-12 11:00N 30°24' W 086°48'3 5.9
2017-May-12 10:30N 30°24' W 086°52'  

Dump ship's entire track history